sensor_id;sensor_type;location;lat;lon;timestamp;temperature;humidity
30459;DHT22;17254;50.976;7.034;2022-09-09T00:00:20;16.40;99.90
30459;DHT22;17254;50.976;7.034;2022-09-09T00:00:57;16.40;99.90
30459;DHT22;17254;50.976;7.034;2022-09-09T00:01:39;16.40;99.90
30459;DHT22;17254;50.976;7.034;2022-09-09T00:02:18;16.40;99.90
30459;DHT22;17254;50.976;7.034;2022-09-09T00:02:55;16.30;99.90
30459;DHT22;17254;50.976;7.034;2022-09-09T00:03:37;16.30;99.90
30459;DHT22;17254;50.976;7.034;2022-09-09T00:04:16;16.30;99.90
30459;DHT22;17254;50.976;7.034;2022-09-09T00:04:58;16.30;99.90
30459;DHT22;17254;50.976;7.034;2022-09-09T00:05:36;16.40;99.90
30459;DHT22;17254;50.976;7.034;2022-09-09T00:06:16;16.30;99.90
30459;DHT22;17254;50.976;7.034;2022-09-09T00:06:55;16.30;99.90
30459;DHT22;17254;50.976;7.034;2022-09-09T00:07:38;16.30;99.90
30459;DHT22;17254;50.976;7.034;2022-09-09T00:08:17;16.30;99.90
30459;DHT22;17254;50.976;7.034;2022-09-09T00:08:58;16.20;99.90
30459;DHT22;17254;50.976;7.034;2022-09-09T00:09:40;16.20;99.90
30459;DHT22;17254;50.976;7.034;2022-09-09T00:10:21;16.20;99.90
30459;DHT22;17254;50.976;7.034;2022-09-09T00:10:58;16.20;99.90
30459;DHT22;17254;50.976;7.034;2022-09-09T00:11:35;16.20;99.90
30459;DHT22;17254;50.976;7.034;2022-09-09T00:12:11;16.10;99.90
30459;DHT22;17254;50.976;7.034;2022-09-09T00:12:51;16.20;99.90
30459;DHT22;17254;50.976;7.034;2022-09-09T00:13:27;16.20;99.90
30459;DHT22;17254;50.976;7.034;2022-09-09T00:14:03;16.10;99.90
30459;DHT22;17254;50.976;7.034;2022-09-09T00:14:44;16.10;99.90
30459;DHT22;17254;50.976;7.034;2022-09-09T00:15:20;16.10;99.90
30459;DHT22;17254;50.976;7.034;2022-09-09T00:15:59;16.00;99.90
30459;DHT22;17254;50.976;7.034;2022-09-09T00:16:35;16.00;99.90
30459;DHT22;17254;50.976;7.034;2022-09-09T00:17:11;16.00;99.90
30459;DHT22;17254;50.976;7.034;2022-09-09T00:17:49;15.90;99.90
30459;DHT22;17254;50.976;7.034;2022-09-09T00:18:27;15.90;99.90
30459;DHT22;17254;50.976;7.034;2022-09-09T00:19:04;15.90;99.90
30459;DHT22;17254;50.976;7.034;2022-09-09T00:19:41;15.90;99.90
30459;DHT22;17254;50.976;7.034;2022-09-09T00:20:20;15.80;99.90
30459;DHT22;17254;50.976;7.034;2022-09-09T00:20:58;15.80;99.90
30459;DHT22;17254;50.976;7.034;2022-09-09T00:21:36;15.80;99.90
30459;DHT22;17254;50.976;7.034;2022-09-09T00:22:15;15.70;99.90
30459;DHT22;17254;50.976;7.034;2022-09-09T00:22:53;15.80;99.90
30459;DHT22;17254;50.976;7.034;2022-09-09T00:23:28;15.70;99.90
30459;DHT22;17254;50.976;7.034;2022-09-09T00:24:04;15.70;99.90
30459;DHT22;17254;50.976;7.034;2022-09-09T00:24:43;15.70;99.90
30459;DHT22;17254;50.976;7.034;2022-09-09T00:25:19;15.70;99.90
30459;DHT22;17254;50.976;7.034;2022-09-09T00:26:02;15.70;99.90
30459;DHT22;17254;50.976;7.034;2022-09-09T00:26:38;15.70;99.90
30459;DHT22;17254;50.976;7.034;2022-09-09T00:27:16;15.70;99.90
30459;DHT22;17254;50.976;7.034;2022-09-09T00:27:49;15.70;99.90
30459;DHT22;17254;50.976;7.034;2022-09-09T00:28:24;15.70;99.90
30459;DHT22;17254;50.976;7.034;2022-09-09T00:29:02;15.70;99.90
30459;DHT22;17254;50.976;7.034;2022-09-09T00:29:39;15.60;99.90
30459;DHT22;17254;50.976;7.034;2022-09-09T00:30:17;15.70;99.90
30459;DHT22;17254;50.976;7.034;2022-09-09T00:30:50;15.70;99.90
30459;DHT22;17254;50.976;7.034;2022-09-09T00:31:26;15.70;99.90
30459;DHT22;17254;50.976;7.034;2022-09-09T00:32:08;15.70;99.90
30459;DHT22;17254;50.976;7.034;2022-09-09T00:32:41;15.70;99.90
30459;DHT22;17254;50.976;7.034;2022-09-09T00:33:17;15.70;99.90
30459;DHT22;17254;50.976;7.034;2022-09-09T00:33:49;15.70;99.90
30459;DHT22;17254;50.976;7.034;2022-09-09T00:34:23;15.70;99.90
30459;DHT22;17254;50.976;7.034;2022-09-09T00:35:00;15.70;99.90
30459;DHT22;17254;50.976;7.034;2022-09-09T00:35:35;15.70;99.90
30459;DHT22;17254;50.976;7.034;2022-09-09T00:36:13;15.70;99.90
30459;DHT22;17254;50.976;7.034;2022-09-09T00:36:48;15.80;99.90
30459;DHT22;17254;50.976;7.034;2022-09-09T00:37:22;15.80;99.90
30459;DHT22;17254;50.976;7.034;2022-09-09T00:38:00;15.80;99.90
30459;DHT22;17254;50.976;7.034;2022-09-09T00:38:35;15.80;99.90
30459;DHT22;17254;50.976;7.034;2022-09-09T00:39:12;15.80;99.90
30459;DHT22;17254;50.976;7.034;2022-09-09T00:39:46;15.80;99.90
30459;DHT22;17254;50.976;7.034;2022-09-09T00:40:25;15.80;99.90
30459;DHT22;17254;50.976;7.034;2022-09-09T00:41:03;15.80;99.90
30459;DHT22;17254;50.976;7.034;2022-09-09T00:41:48;15.70;99.90
30459;DHT22;17254;50.976;7.034;2022-09-09T00:42:25;15.80;99.90
30459;DHT22;17254;50.976;7.034;2022-09-09T00:43:14;15.80;99.90
30459;DHT22;17254;50.976;7.034;2022-09-09T00:43:56;15.80;99.90
30459;DHT22;17254;50.976;7.034;2022-09-09T00:44:32;15.80;99.90
30459;DHT22;17254;50.976;7.034;2022-09-09T00:45:19;15.80;99.90
30459;DHT22;17254;50.976;7.034;2022-09-09T00:46:09;15.80;99.90
30459;DHT22;17254;50.976;7.034;2022-09-09T00:46:54;15.80;99.90
30459;DHT22;17254;50.976;7.034;2022-09-09T00:47:48;15.80;99.90
30459;DHT22;17254;50.976;7.034;2022-09-09T00:48:24;15.80;99.90
30459;DHT22;17254;50.976;7.034;2022-09-09T00:49:05;15.80;99.90
30459;DHT22;17254;50.976;7.034;2022-09-09T00:49:49;15.80;99.90
30459;DHT22;17254;50.976;7.034;2022-09-09T00:50:41;15.80;99.90
30459;DHT22;17254;50.976;7.034;2022-09-09T00:51:17;15.80;99.90
30459;DHT22;17254;50.976;7.034;2022-09-09T00:52:02;15.90;99.90
30459;DHT22;17254;50.976;7.034;2022-09-09T00:52:42;15.90;99.90
30459;DHT22;17254;50.976;7.034;2022-09-09T00:53:25;15.90;99.90
30459;DHT22;17254;50.976;7.034;2022-09-09T00:54:10;15.90;99.90
30459;DHT22;17254;50.976;7.034;2022-09-09T00:54:51;16.00;99.90
30459;DHT22;17254;50.976;7.034;2022-09-09T00:55:31;16.00;99.90
30459;DHT22;17254;50.976;7.034;2022-09-09T00:56:12;16.00;99.90
30459;DHT22;17254;50.976;7.034;2022-09-09T00:56:50;16.00;99.90
30459;DHT22;17254;50.976;7.034;2022-09-09T00:57:26;16.00;99.90
30459;DHT22;17254;50.976;7.034;2022-09-09T00:57:59;16.10;99.90
30459;DHT22;17254;50.976;7.034;2022-09-09T00:58:30;16.10;99.90
30459;DHT22;17254;50.976;7.034;2022-09-09T00:59:22;16.10;99.90
30459;DHT22;17254;50.976;7.034;2022-09-09T01:00:00;16.10;99.90
30459;DHT22;17254;50.976;7.034;2022-09-09T01:00:42;16.20;99.90
30459;DHT22;17254;50.976;7.034;2022-09-09T01:01:15;16.20;99.90
30459;DHT22;17254;50.976;7.034;2022-09-09T01:01:46;16.20;99.90
30459;DHT22;17254;50.976;7.034;2022-09-09T01:02:25;16.20;99.90
30459;DHT22;17254;50.976;7.034;2022-09-09T01:03:21;16.20;99.90
30459;DHT22;17254;50.976;7.034;2022-09-09T01:03:56;16.20;99.90
30459;DHT22;17254;50.976;7.034;2022-09-09T01:04:34;16.20;99.90
30459;DHT22;17254;50.976;7.034;2022-09-09T01:05:13;16.20;99.90
30459;DHT22;17254;50.976;7.034;2022-09-09T01:05:53;16.20;99.90
30459;DHT22;17254;50.976;7.034;2022-09-09T01:06:30;16.30;99.90
30459;DHT22;17254;50.976;7.034;2022-09-09T01:07:05;16.30;99.90
30459;DHT22;17254;50.976;7.034;2022-09-09T01:07:40;16.40;99.90
30459;DHT22;17254;50.976;7.034;2022-09-09T01:08:32;16.40;99.90
30459;DHT22;17254;50.976;7.034;2022-09-09T01:09:16;16.40;99.90
30459;DHT22;17254;50.976;7.034;2022-09-09T01:09:55;16.40;99.90
30459;DHT22;17254;50.976;7.034;2022-09-09T01:10:33;16.40;99.90
30459;DHT22;17254;50.976;7.034;2022-09-09T01:11:13;16.30;99.90
30459;DHT22;17254;50.976;7.034;2022-09-09T01:11:57;16.40;99.90
30459;DHT22;17254;50.976;7.034;2022-09-09T01:12:42;16.40;99.90
30459;DHT22;17254;50.976;7.034;2022-09-09T01:13:24;16.40;99.90
30459;DHT22;17254;50.976;7.034;2022-09-09T01:14:00;16.40;99.90
30459;DHT22;17254;50.976;7.034;2022-09-09T01:14:40;16.40;99.90
30459;DHT22;17254;50.976;7.034;2022-09-09T01:15:20;16.40;99.90
30459;DHT22;17254;50.976;7.034;2022-09-09T01:15:55;16.50;99.90
30459;DHT22;17254;50.976;7.034;2022-09-09T01:16:29;16.50;99.90
30459;DHT22;17254;50.976;7.034;2022-09-09T01:17:05;16.40;99.90
30459;DHT22;17254;50.976;7.034;2022-09-09T01:17:54;16.40;99.90
30459;DHT22;17254;50.976;7.034;2022-09-09T01:18:32;16.50;99.90
30459;DHT22;17254;50.976;7.034;2022-09-09T01:19:07;16.40;99.90
30459;DHT22;17254;50.976;7.034;2022-09-09T01:19:52;16.40;99.90
30459;DHT22;17254;50.976;7.034;2022-09-09T01:20:31;16.50;99.90
30459;DHT22;17254;50.976;7.034;2022-09-09T01:21:16;16.50;99.90
30459;DHT22;17254;50.976;7.034;2022-09-09T01:21:56;16.60;99.90
30459;DHT22;17254;50.976;7.034;2022-09-09T01:22:35;16.50;99.90
30459;DHT22;17254;50.976;7.034;2022-09-09T01:23:22;16.50;99.90
30459;DHT22;17254;50.976;7.034;2022-09-09T01:24:15;16.50;99.90
30459;DHT22;17254;50.976;7.034;2022-09-09T01:25:26;16.50;99.90
30459;DHT22;17254;50.976;7.034;2022-09-09T01:26:23;16.50;99.90
30459;DHT22;17254;50.976;7.034;2022-09-09T01:26:59;16.40;99.90
30459;DHT22;17254;50.976;7.034;2022-09-09T01:27:32;16.40;99.90
30459;DHT22;17254;50.976;7.034;2022-09-09T01:28:09;16.40;99.90
30459;DHT22;17254;50.976;7.034;2022-09-09T01:28:44;16.30;99.90
30459;DHT22;17254;50.976;7.034;2022-09-09T01:29:21;16.30;99.90
30459;DHT22;17254;50.976;7.034;2022-09-09T01:29:52;16.30;99.90
30459;DHT22;17254;50.976;7.034;2022-09-09T01:30:25;16.20;99.90
30459;DHT22;17254;50.976;7.034;2022-09-09T01:30:57;16.20;99.90
30459;DHT22;17254;50.976;7.034;2022-09-09T01:31:36;16.20;99.90
30459;DHT22;17254;50.976;7.034;2022-09-09T01:32:41;16.20;99.90
30459;DHT22;17254;50.976;7.034;2022-09-09T01:33:15;16.20;99.90
30459;DHT22;17254;50.976;7.034;2022-09-09T01:33:48;16.20;99.90
30459;DHT22;17254;50.976;7.034;2022-09-09T01:34:20;16.20;99.90
30459;DHT22;17254;50.976;7.034;2022-09-09T01:34:52;16.20;99.90
30459;DHT22;17254;50.976;7.034;2022-09-09T01:35:39;16.20;99.90
30459;DHT22;17254;50.976;7.034;2022-09-09T01:36:17;16.10;99.90
30459;DHT22;17254;50.976;7.034;2022-09-09T01:36:57;16.10;99.90
30459;DHT22;17254;50.976;7.034;2022-09-09T01:37:31;16.20;99.90
30459;DHT22;17254;50.976;7.034;2022-09-09T01:38:02;16.10;99.90
30459;DHT22;17254;50.976;7.034;2022-09-09T01:38:34;16.10;99.90
30459;DHT22;17254;50.976;7.034;2022-09-09T01:39:06;16.10;99.90
30459;DHT22;17254;50.976;7.034;2022-09-09T01:39:40;16.10;99.90
30459;DHT22;17254;50.976;7.034;2022-09-09T01:40:15;16.10;99.90
30459;DHT22;17254;50.976;7.034;2022-09-09T01:40:46;16.10;99.90
30459;DHT22;17254;50.976;7.034;2022-09-09T01:41:21;16.10;99.90
30459;DHT22;17254;50.976;7.034;2022-09-09T01:41:57;16.10;99.90
30459;DHT22;17254;50.976;7.034;2022-09-09T01:42:29;16.10;99.90
30459;DHT22;17254;50.976;7.034;2022-09-09T01:43:01;16.00;99.90
30459;DHT22;17254;50.976;7.034;2022-09-09T01:43:33;16.00;99.90
30459;DHT22;17254;50.976;7.034;2022-09-09T01:44:06;16.00;99.90
30459;DHT22;17254;50.976;7.034;2022-09-09T01:44:40;16.10;99.90
30459;DHT22;17254;50.976;7.034;2022-09-09T01:45:12;16.00;99.90
30459;DHT22;17254;50.976;7.034;2022-09-09T01:45:43;16.00;99.90
30459;DHT22;17254;50.976;7.034;2022-09-09T01:46:16;16.00;99.90
30459;DHT22;17254;50.976;7.034;2022-09-09T01:46:48;16.00;99.90
30459;DHT22;17254;50.976;7.034;2022-09-09T01:47:21;16.00;99.90
30459;DHT22;17254;50.976;7.034;2022-09-09T01:48:06;16.00;99.90
30459;DHT22;17254;50.976;7.034;2022-09-09T01:48:50;16.00;99.90
30459;DHT22;17254;50.976;7.034;2022-09-09T01:49:22;16.00;99.90
30459;DHT22;17254;50.976;7.034;2022-09-09T01:49:54;16.00;99.90
30459;DHT22;17254;50.976;7.034;2022-09-09T01:50:29;16.00;99.90
30459;DHT22;17254;50.976;7.034;2022-09-09T01:51:01;16.00;99.90
30459;DHT22;17254;50.976;7.034;2022-09-09T01:51:33;16.00;99.90
30459;DHT22;17254;50.976;7.034;2022-09-09T01:52:07;16.10;99.90
30459;DHT22;17254;50.976;7.034;2022-09-09T01:52:42;16.10;99.90
30459;DHT22;17254;50.976;7.034;2022-09-09T01:53:18;16.10;99.90
30459;DHT22;17254;50.976;7.034;2022-09-09T01:53:50;16.10;99.90
30459;DHT22;17254;50.976;7.034;2022-09-09T01:54:24;16.10;99.90
30459;DHT22;17254;50.976;7.034;2022-09-09T01:54:57;16.10;99.90
30459;DHT22;17254;50.976;7.034;2022-09-09T01:55:37;16.10;99.90
30459;DHT22;17254;50.976;7.034;2022-09-09T01:56:18;16.10;99.90
30459;DHT22;17254;50.976;7.034;2022-09-09T01:57:04;16.10;99.90
30459;DHT22;17254;50.976;7.034;2022-09-09T01:57:41;16.20;99.90
30459;DHT22;17254;50.976;7.034;2022-09-09T01:58:26;16.20;99.90
30459;DHT22;17254;50.976;7.034;2022-09-09T01:59:23;16.30;99.90
30459;DHT22;17254;50.976;7.034;2022-09-09T02:00:03;16.30;99.90
30459;DHT22;17254;50.976;7.034;2022-09-09T02:00:52;16.30;99.90
30459;DHT22;17254;50.976;7.034;2022-09-09T02:01:32;16.30;99.90
30459;DHT22;17254;50.976;7.034;2022-09-09T02:02:10;16.30;99.90
30459;DHT22;17254;50.976;7.034;2022-09-09T02:02:55;16.40;99.90
30459;DHT22;17254;50.976;7.034;2022-09-09T02:03:40;16.40;99.90
30459;DHT22;17254;50.976;7.034;2022-09-09T02:04:32;16.40;99.90
30459;DHT22;17254;50.976;7.034;2022-09-09T02:05:17;16.40;99.90
30459;DHT22;17254;50.976;7.034;2022-09-09T02:05:56;16.40;99.90
30459;DHT22;17254;50.976;7.034;2022-09-09T02:06:35;16.40;99.90
30459;DHT22;17254;50.976;7.034;2022-09-09T02:07:31;16.40;99.90
30459;DHT22;17254;50.976;7.034;2022-09-09T02:08:13;16.40;99.90
30459;DHT22;17254;50.976;7.034;2022-09-09T02:09:01;16.40;99.90
30459;DHT22;17254;50.976;7.034;2022-09-09T02:09:35;16.30;99.90
30459;DHT22;17254;50.976;7.034;2022-09-09T02:10:10;16.30;99.90
30459;DHT22;17254;50.976;7.034;2022-09-09T02:10:52;16.30;99.90
30459;DHT22;17254;50.976;7.034;2022-09-09T02:11:36;16.30;99.90
30459;DHT22;17254;50.976;7.034;2022-09-09T02:12:21;16.30;99.90
30459;DHT22;17254;50.976;7.034;2022-09-09T02:13:04;16.30;99.90
30459;DHT22;17254;50.976;7.034;2022-09-09T02:13:37;16.30;99.90
30459;DHT22;17254;50.976;7.034;2022-09-09T02:14:14;16.30;99.90
30459;DHT22;17254;50.976;7.034;2022-09-09T02:14:56;16.30;99.90
30459;DHT22;17254;50.976;7.034;2022-09-09T02:15:34;16.30;99.90
30459;DHT22;17254;50.976;7.034;2022-09-09T02:16:08;16.30;99.90
30459;DHT22;17254;50.976;7.034;2022-09-09T02:16:44;16.30;99.90
30459;DHT22;17254;50.976;7.034;2022-09-09T02:17:21;16.30;99.90
30459;DHT22;17254;50.976;7.034;2022-09-09T02:18:08;16.30;99.90
30459;DHT22;17254;50.976;7.034;2022-09-09T02:18:45;16.30;99.90
30459;DHT22;17254;50.976;7.034;2022-09-09T02:19:23;16.20;99.90
30459;DHT22;17254;50.976;7.034;2022-09-09T02:20:13;16.20;99.90
30459;DHT22;17254;50.976;7.034;2022-09-09T02:20:56;16.30;99.90
30459;DHT22;17254;50.976;7.034;2022-09-09T02:21:29;16.30;99.90
30459;DHT22;17254;50.976;7.034;2022-09-09T02:22:01;16.30;99.90
30459;DHT22;17254;50.976;7.034;2022-09-09T02:22:34;16.30;99.90
30459;DHT22;17254;50.976;7.034;2022-09-09T02:23:11;16.20;99.90
30459;DHT22;17254;50.976;7.034;2022-09-09T02:23:43;16.20;99.90
30459;DHT22;17254;50.976;7.034;2022-09-09T02:24:17;16.20;99.90
30459;DHT22;17254;50.976;7.034;2022-09-09T02:24:58;16.20;99.90
30459;DHT22;17254;50.976;7.034;2022-09-09T02:25:34;16.20;99.90
30459;DHT22;17254;50.976;7.034;2022-09-09T02:26:17;16.20;99.90
30459;DHT22;17254;50.976;7.034;2022-09-09T02:26:57;16.20;99.90
30459;DHT22;17254;50.976;7.034;2022-09-09T02:27:30;16.20;99.90
30459;DHT22;17254;50.976;7.034;2022-09-09T02:28:03;16.20;99.90
30459;DHT22;17254;50.976;7.034;2022-09-09T02:28:38;16.20;99.90
30459;DHT22;17254;50.976;7.034;2022-09-09T02:29:13;16.20;99.90
30459;DHT22;17254;50.976;7.034;2022-09-09T02:29:46;16.20;99.90
30459;DHT22;17254;50.976;7.034;2022-09-09T02:30:21;16.20;99.90
30459;DHT22;17254;50.976;7.034;2022-09-09T02:30:57;16.20;99.90
30459;DHT22;17254;50.976;7.034;2022-09-09T02:31:37;16.30;99.90
30459;DHT22;17254;50.976;7.034;2022-09-09T02:32:15;16.20;99.90
30459;DHT22;17254;50.976;7.034;2022-09-09T02:32:51;16.20;99.90
30459;DHT22;17254;50.976;7.034;2022-09-09T02:33:32;16.20;99.90
30459;DHT22;17254;50.976;7.034;2022-09-09T02:34:05;16.30;99.90
30459;DHT22;17254;50.976;7.034;2022-09-09T02:34:44;16.30;99.90
30459;DHT22;17254;50.976;7.034;2022-09-09T02:35:20;16.30;99.90
30459;DHT22;17254;50.976;7.034;2022-09-09T02:35:54;16.30;99.90
30459;DHT22;17254;50.976;7.034;2022-09-09T02:36:33;16.30;99.90
30459;DHT22;17254;50.976;7.034;2022-09-09T02:37:07;16.30;99.90
30459;DHT22;17254;50.976;7.034;2022-09-09T02:37:40;16.30;99.90
30459;DHT22;17254;50.976;7.034;2022-09-09T02:38:14;16.30;99.90
30459;DHT22;17254;50.976;7.034;2022-09-09T02:38:56;16.40;99.90
30459;DHT22;17254;50.976;7.034;2022-09-09T02:39:30;16.40;99.90
30459;DHT22;17254;50.976;7.034;2022-09-09T02:40:03;16.40;99.90
30459;DHT22;17254;50.976;7.034;2022-09-09T02:40:36;16.40;99.90
30459;DHT22;17254;50.976;7.034;2022-09-09T02:41:08;16.50;99.90
30459;DHT22;17254;50.976;7.034;2022-09-09T02:41:41;16.40;99.90
30459;DHT22;17254;50.976;7.034;2022-09-09T02:42:13;16.50;99.90
30459;DHT22;17254;50.976;7.034;2022-09-09T02:42:48;16.50;99.90
30459;DHT22;17254;50.976;7.034;2022-09-09T02:43:19;16.50;99.90
30459;DHT22;17254;50.976;7.034;2022-09-09T02:43:50;16.50;99.90
30459;DHT22;17254;50.976;7.034;2022-09-09T02:44:23;16.50;99.90
30459;DHT22;17254;50.976;7.034;2022-09-09T02:44:55;16.50;99.90
30459;DHT22;17254;50.976;7.034;2022-09-09T02:45:31;16.50;99.90
30459;DHT22;17254;50.976;7.034;2022-09-09T02:46:20;16.50;99.90
30459;DHT22;17254;50.976;7.034;2022-09-09T02:47:07;16.50;99.90
30459;DHT22;17254;50.976;7.034;2022-09-09T02:47:45;16.60;99.90
30459;DHT22;17254;50.976;7.034;2022-09-09T02:48:26;16.50;99.90
30459;DHT22;17254;50.976;7.034;2022-09-09T02:49:04;16.60;99.90
30459;DHT22;17254;50.976;7.034;2022-09-09T02:49:52;16.60;99.90
30459;DHT22;17254;50.976;7.034;2022-09-09T02:50:33;16.50;99.90
30459;DHT22;17254;50.976;7.034;2022-09-09T02:51:09;16.60;99.90
30459;DHT22;17254;50.976;7.034;2022-09-09T02:51:48;16.60;99.90
30459;DHT22;17254;50.976;7.034;2022-09-09T02:52:28;16.60;99.90
30459;DHT22;17254;50.976;7.034;2022-09-09T02:53:06;16.50;99.90
30459;DHT22;17254;50.976;7.034;2022-09-09T02:53:43;16.50;99.90
30459;DHT22;17254;50.976;7.034;2022-09-09T02:54:22;16.60;99.90
30459;DHT22;17254;50.976;7.034;2022-09-09T02:54:59;16.60;99.90
30459;DHT22;17254;50.976;7.034;2022-09-09T02:55:38;16.60;99.90
30459;DHT22;17254;50.976;7.034;2022-09-09T02:56:15;16.50;99.90
30459;DHT22;17254;50.976;7.034;2022-09-09T02:56:52;16.60;99.90
30459;DHT22;17254;50.976;7.034;2022-09-09T02:57:28;16.60;99.90
30459;DHT22;17254;50.976;7.034;2022-09-09T02:58:04;16.60;99.90
30459;DHT22;17254;50.976;7.034;2022-09-09T02:58:38;16.60;99.90
30459;DHT22;17254;50.976;7.034;2022-09-09T02:59:10;16.50;99.90
30459;DHT22;17254;50.976;7.034;2022-09-09T02:59:44;16.60;99.90
30459;DHT22;17254;50.976;7.034;2022-09-09T03:00:15;16.50;99.90
30459;DHT22;17254;50.976;7.034;2022-09-09T03:00:48;16.50;99.90
30459;DHT22;17254;50.976;7.034;2022-09-09T03:01:22;16.50;99.90
30459;DHT22;17254;50.976;7.034;2022-09-09T03:01:53;16.50;99.90
30459;DHT22;17254;50.976;7.034;2022-09-09T03:02:24;16.50;99.90
30459;DHT22;17254;50.976;7.034;2022-09-09T03:03:02;16.50;99.90
30459;DHT22;17254;50.976;7.034;2022-09-09T03:03:33;16.50;99.90
30459;DHT22;17254;50.976;7.034;2022-09-09T03:04:07;16.50;99.90
30459;DHT22;17254;50.976;7.034;2022-09-09T03:04:40;16.50;99.90
30459;DHT22;17254;50.976;7.034;2022-09-09T03:05:12;16.50;99.90
30459;DHT22;17254;50.976;7.034;2022-09-09T03:05:44;16.50;99.90
30459;DHT22;17254;50.976;7.034;2022-09-09T03:06:16;16.50;99.90
30459;DHT22;17254;50.976;7.034;2022-09-09T03:06:51;16.50;99.90
30459;DHT22;17254;50.976;7.034;2022-09-09T03:07:24;16.50;99.90
30459;DHT22;17254;50.976;7.034;2022-09-09T03:07:59;16.50;99.90
30459;DHT22;17254;50.976;7.034;2022-09-09T03:08:29;16.50;99.90
30459;DHT22;17254;50.976;7.034;2022-09-09T03:09:02;16.50;99.90
30459;DHT22;17254;50.976;7.034;2022-09-09T03:09:34;16.50;99.90
30459;DHT22;17254;50.976;7.034;2022-09-09T03:10:07;16.40;99.90
30459;DHT22;17254;50.976;7.034;2022-09-09T03:10:40;16.50;99.90
30459;DHT22;17254;50.976;7.034;2022-09-09T03:11:11;16.50;99.90
30459;DHT22;17254;50.976;7.034;2022-09-09T03:11:46;16.40;99.90
30459;DHT22;17254;50.976;7.034;2022-09-09T03:12:19;16.50;99.90
30459;DHT22;17254;50.976;7.034;2022-09-09T03:12:51;16.50;99.90
30459;DHT22;17254;50.976;7.034;2022-09-09T03:13:24;16.50;99.90
30459;DHT22;17254;50.976;7.034;2022-09-09T03:13:55;16.50;99.90
30459;DHT22;17254;50.976;7.034;2022-09-09T03:14:27;16.50;99.90
30459;DHT22;17254;50.976;7.034;2022-09-09T03:14:59;16.50;99.90
30459;DHT22;17254;50.976;7.034;2022-09-09T03:15:31;16.50;99.90
30459;DHT22;17254;50.976;7.034;2022-09-09T03:16:03;16.40;99.90
30459;DHT22;17254;50.976;7.034;2022-09-09T03:16:39;16.50;99.90
30459;DHT22;17254;50.976;7.034;2022-09-09T03:17:11;16.40;99.90
30459;DHT22;17254;50.976;7.034;2022-09-09T03:17:48;16.40;99.90
30459;DHT22;17254;50.976;7.034;2022-09-09T03:18:21;16.40;99.90
30459;DHT22;17254;50.976;7.034;2022-09-09T03:18:55;16.40;99.90
30459;DHT22;17254;50.976;7.034;2022-09-09T03:19:26;16.40;99.90
30459;DHT22;17254;50.976;7.034;2022-09-09T03:20:01;16.40;99.90
30459;DHT22;17254;50.976;7.034;2022-09-09T03:20:33;16.40;99.90
30459;DHT22;17254;50.976;7.034;2022-09-09T03:21:04;16.40;99.90
30459;DHT22;17254;50.976;7.034;2022-09-09T03:21:37;16.40;99.90
30459;DHT22;17254;50.976;7.034;2022-09-09T03:22:10;16.40;99.90
30459;DHT22;17254;50.976;7.034;2022-09-09T03:22:44;16.40;99.90
30459;DHT22;17254;50.976;7.034;2022-09-09T03:23:16;16.40;99.90
30459;DHT22;17254;50.976;7.034;2022-09-09T03:23:48;16.40;99.90
30459;DHT22;17254;50.976;7.034;2022-09-09T03:24:19;16.40;99.90
30459;DHT22;17254;50.976;7.034;2022-09-09T03:24:51;16.40;99.90
30459;DHT22;17254;50.976;7.034;2022-09-09T03:25:23;16.40;99.90
30459;DHT22;17254;50.976;7.034;2022-09-09T03:25:55;16.40;99.90
30459;DHT22;17254;50.976;7.034;2022-09-09T03:26:36;16.40;99.90
30459;DHT22;17254;50.976;7.034;2022-09-09T03:27:08;16.40;99.90
30459;DHT22;17254;50.976;7.034;2022-09-09T03:27:41;16.30;99.90
30459;DHT22;17254;50.976;7.034;2022-09-09T03:28:14;16.40;99.90
30459;DHT22;17254;50.976;7.034;2022-09-09T03:28:48;16.40;99.90
30459;DHT22;17254;50.976;7.034;2022-09-09T03:29:23;16.40;99.90
30459;DHT22;17254;50.976;7.034;2022-09-09T03:29:58;16.40;99.90
30459;DHT22;17254;50.976;7.034;2022-09-09T03:30:30;16.40;99.90
30459;DHT22;17254;50.976;7.034;2022-09-09T03:31:02;16.40;99.90
30459;DHT22;17254;50.976;7.034;2022-09-09T03:31:38;16.30;99.90
30459;DHT22;17254;50.976;7.034;2022-09-09T03:32:10;16.30;99.90
30459;DHT22;17254;50.976;7.034;2022-09-09T03:32:41;16.30;99.90
30459;DHT22;17254;50.976;7.034;2022-09-09T03:33:13;16.40;99.90
30459;DHT22;17254;50.976;7.034;2022-09-09T03:33:45;16.30;99.90
30459;DHT22;17254;50.976;7.034;2022-09-09T03:34:19;16.40;99.90
30459;DHT22;17254;50.976;7.034;2022-09-09T03:34:50;16.40;99.90
30459;DHT22;17254;50.976;7.034;2022-09-09T03:35:23;16.30;99.90
30459;DHT22;17254;50.976;7.034;2022-09-09T03:35:54;16.30;99.90
30459;DHT22;17254;50.976;7.034;2022-09-09T03:36:27;16.30;99.90
30459;DHT22;17254;50.976;7.034;2022-09-09T03:36:59;16.30;99.90
30459;DHT22;17254;50.976;7.034;2022-09-09T03:37:32;16.30;99.90
30459;DHT22;17254;50.976;7.034;2022-09-09T03:38:03;16.40;99.90
30459;DHT22;17254;50.976;7.034;2022-09-09T03:38:37;16.40;99.90
30459;DHT22;17254;50.976;7.034;2022-09-09T03:39:08;16.40;99.90
30459;DHT22;17254;50.976;7.034;2022-09-09T03:39:39;16.40;99.90
30459;DHT22;17254;50.976;7.034;2022-09-09T03:40:13;16.40;99.90
30459;DHT22;17254;50.976;7.034;2022-09-09T03:40:49;16.40;99.90
30459;DHT22;17254;50.976;7.034;2022-09-09T03:41:21;16.40;99.90
30459;DHT22;17254;50.976;7.034;2022-09-09T03:41:54;16.30;99.90
30459;DHT22;17254;50.976;7.034;2022-09-09T03:42:26;16.40;99.90
30459;DHT22;17254;50.976;7.034;2022-09-09T03:42:59;16.40;99.90
30459;DHT22;17254;50.976;7.034;2022-09-09T03:43:32;16.30;99.90
30459;DHT22;17254;50.976;7.034;2022-09-09T03:44:04;16.40;99.90
30459;DHT22;17254;50.976;7.034;2022-09-09T03:44:40;16.40;99.90
30459;DHT22;17254;50.976;7.034;2022-09-09T03:45:12;16.40;99.90
30459;DHT22;17254;50.976;7.034;2022-09-09T03:45:45;16.50;99.90
30459;DHT22;17254;50.976;7.034;2022-09-09T03:46:18;16.40;99.90
30459;DHT22;17254;50.976;7.034;2022-09-09T03:46:50;16.50;99.90
30459;DHT22;17254;50.976;7.034;2022-09-09T03:47:22;16.50;99.90
30459;DHT22;17254;50.976;7.034;2022-09-09T03:47:55;16.40;99.90
30459;DHT22;17254;50.976;7.034;2022-09-09T03:48:28;16.50;99.90
30459;DHT22;17254;50.976;7.034;2022-09-09T03:48:59;16.40;99.90
30459;DHT22;17254;50.976;7.034;2022-09-09T03:49:34;16.40;99.90
30459;DHT22;17254;50.976;7.034;2022-09-09T03:50:07;16.40;99.90
30459;DHT22;17254;50.976;7.034;2022-09-09T03:50:44;16.40;99.90
30459;DHT22;17254;50.976;7.034;2022-09-09T03:51:17;16.40;99.90
30459;DHT22;17254;50.976;7.034;2022-09-09T03:51:48;16.40;99.90
30459;DHT22;17254;50.976;7.034;2022-09-09T03:52:19;16.40;99.90
30459;DHT22;17254;50.976;7.034;2022-09-09T03:52:52;16.40;99.90
30459;DHT22;17254;50.976;7.034;2022-09-09T03:53:26;16.40;99.90